createdAt,value
2022-11-28T04:49:46.176Z,10.02
2022-11-28T04:51:55.913Z,10.35
2022-11-28T04:54:05.614Z,10.58
2022-11-28T04:56:16.906Z,10.76
2022-11-28T04:58:25.416Z,10.90
2022-11-28T05:00:28.409Z,11.02
2022-11-28T05:02:32.251Z,11.12
2022-11-28T05:04:38.361Z,11.19
2022-11-28T05:06:42.336Z,11.30
2022-11-28T05:08:45.043Z,11.34
2022-11-28T05:10:48.562Z,11.40
2022-11-28T05:12:51.294Z,11.42
2022-11-28T05:14:53.938Z,11.44
2022-11-28T05:16:56.663Z,11.49
2022-11-28T05:18:59.311Z,11.52
2022-11-28T05:21:02.256Z,11.52
2022-11-28T05:23:06.505Z,11.55
2022-11-28T05:25:09.904Z,11.57
2022-11-28T05:27:12.626Z,11.59
2022-11-28T05:29:15.346Z,11.62
2022-11-28T05:31:19.774Z,11.63
2022-11-28T05:33:22.552Z,11.65
2022-11-28T05:35:25.356Z,11.65
2022-11-28T05:37:28.172Z,11.65
2022-11-28T05:39:33.746Z,11.66
2022-11-28T05:41:36.591Z,11.68
2022-11-28T05:43:39.274Z,11.68
2022-11-28T05:45:42.179Z,11.69
2022-11-28T05:47:44.966Z,11.70
2022-11-28T05:49:47.842Z,11.70
2022-11-28T05:51:50.590Z,11.72
2022-11-28T05:53:53.249Z,11.73
2022-11-28T05:55:57.266Z,11.74
2022-11-28T05:58:00.112Z,11.74
2022-11-28T06:00:03.172Z,11.75
2022-11-28T06:02:05.873Z,11.76
2022-11-28T06:04:08.740Z,11.78
2022-11-28T06:06:14.169Z,11.78
2022-11-28T06:08:16.896Z,11.77
2022-11-28T06:10:22.438Z,11.78
2022-11-28T06:12:26.655Z,11.78
2022-11-28T06:14:29.308Z,11.79
2022-11-28T06:16:32.998Z,11.78
2022-11-28T06:18:35.805Z,11.79
2022-11-28T06:20:38.426Z,11.80
2022-11-28T06:22:41.164Z,11.81
2022-11-28T06:24:44.110Z,11.82
2022-11-28T06:26:46.785Z,11.82
2022-11-28T06:28:50.955Z,11.83
2022-11-28T06:30:53.602Z,11.86
2022-11-28T06:32:56.215Z,11.85
2022-11-28T06:34:59.012Z,11.85
2022-11-28T06:37:01.954Z,11.85
2022-11-28T06:39:04.836Z,11.86
2022-11-28T06:41:09.975Z,11.87
2022-11-28T06:43:12.669Z,11.86
2022-11-28T06:45:16.750Z,11.87
2022-11-28T06:47:19.481Z,11.89
2022-11-28T06:49:22.551Z,11.91
2022-11-28T06:51:25.218Z,11.91
2022-11-28T06:53:31.428Z,11.90
2022-11-28T06:55:34.450Z,11.89
2022-11-28T06:57:38.014Z,11.91
2022-11-28T06:59:41.117Z,11.91
2022-11-28T07:01:46.141Z,11.93
2022-11-28T07:03:50.064Z,11.93
2022-11-28T07:05:52.753Z,11.92
2022-11-28T07:07:55.521Z,11.93
2022-11-28T07:09:58.171Z,11.92
2022-11-28T07:12:00.976Z,11.94
2022-11-28T07:14:03.926Z,11.94
2022-11-28T07:16:07.664Z,11.94
2022-11-28T07:18:11.755Z,11.93
2022-11-28T07:20:15.141Z,11.94
2022-11-28T07:22:17.839Z,11.93
2022-11-28T07:24:20.779Z,11.93
2022-11-28T07:26:23.602Z,11.93
2022-11-28T07:28:26.488Z,11.94
2022-11-28T07:30:29.294Z,11.96
2022-11-28T07:32:31.932Z,11.95
2022-11-28T07:34:36.111Z,11.97
2022-11-28T07:36:39.212Z,12.00
2022-11-28T07:38:42.168Z,12.00
2022-11-28T07:40:44.865Z,12.01
2022-11-28T07:42:48.800Z,12.03
2022-11-28T07:44:51.576Z,12.03
2022-11-28T07:46:54.290Z,12.02
2022-11-28T07:48:57.724Z,12.01
2022-11-28T07:51:05.296Z,11.99
2022-11-28T07:53:08.006Z,12.01
2022-11-28T07:55:11.216Z,12.01
2022-11-28T07:57:13.930Z,12.01
2022-11-28T07:59:16.767Z,12.01
2022-11-28T08:01:21.861Z,12.00
2022-11-28T08:03:24.829Z,12.01
2022-11-28T08:05:27.704Z,12.01
2022-11-28T08:07:31.945Z,12.02
2022-11-28T08:09:34.748Z,12.03
2022-11-28T08:11:37.783Z,12.02
2022-11-28T08:13:41.076Z,12.03
2022-11-28T08:15:44.086Z,12.04
2022-11-28T08:17:47.965Z,12.04
2022-11-28T08:19:53.709Z,12.05
2022-11-28T08:21:56.467Z,12.06
2022-11-28T08:24:02.491Z,12.07
2022-11-28T08:26:06.074Z,12.06
2022-11-28T08:28:08.923Z,12.08
2022-11-28T08:30:14.719Z,12.08
2022-11-28T08:32:18.138Z,12.09
2022-11-28T08:34:20.906Z,12.13
2022-11-28T08:36:24.336Z,12.13
2022-11-28T08:38:27.129Z,12.15
2022-11-28T08:40:31.364Z,12.17
2022-11-28T08:42:34.166Z,12.19
2022-11-28T08:44:36.955Z,12.19
2022-11-28T08:46:39.657Z,12.21
2022-11-28T08:48:43.531Z,12.22
2022-11-28T08:50:48.327Z,12.22
2022-11-28T08:52:51.168Z,12.23
2022-11-28T08:54:54.528Z,12.27
2022-11-28T08:56:58.944Z,12.30
2022-11-28T08:59:01.795Z,12.32
2022-11-28T09:01:05.080Z,12.34
2022-11-28T09:03:08.984Z,12.35
2022-11-28T09:05:12.072Z,12.34
2022-11-28T09:07:17.308Z,12.35
2022-11-28T09:09:20.429Z,12.37
2022-11-28T09:11:24.525Z,12.36
2022-11-28T09:13:28.744Z,12.35
2022-11-28T09:15:31.458Z,12.38
2022-11-28T09:17:37.469Z,12.39
2022-11-28T09:19:40.411Z,12.38
2022-11-28T09:21:43.962Z,12.38
2022-11-28T09:23:46.827Z,12.38
2022-11-28T09:25:49.819Z,12.36
2022-11-28T09:27:52.509Z,12.38
2022-11-28T09:29:56.397Z,12.39
2022-11-28T09:31:59.153Z,12.40
2022-11-28T09:34:03.464Z,12.40
2022-11-28T09:36:07.372Z,12.41
2022-11-28T09:38:10.449Z,12.41
2022-11-28T09:40:18.779Z,12.42
2022-11-28T09:42:29.788Z,12.41
2022-11-28T09:44:42.501Z,12.41
2022-11-28T09:46:49.142Z,12.42
2022-11-28T09:48:55.696Z,12.40
2022-11-28T09:51:06.951Z,12.43
2022-11-28T09:53:19.734Z,12.42
2022-11-28T09:55:33.108Z,12.42
2022-11-28T09:57:40.615Z,12.42
2022-11-28T09:59:43.720Z,12.43
2022-11-28T10:01:57.379Z,12.43
2022-11-28T10:04:05.360Z,12.43
2022-11-28T10:06:17.365Z,12.42
2022-11-28T10:08:27.838Z,12.42
2022-11-28T10:10:40.050Z,12.43
2022-11-28T10:12:53.148Z,12.44
2022-11-28T10:15:04.342Z,12.43
2022-11-28T10:17:18.404Z,12.44
2022-11-28T10:19:53.479Z,12.44
2022-11-28T10:21:59.468Z,12.46
2022-11-28T10:24:08.582Z,12.45
2022-11-28T10:26:22.042Z,12.43
2022-11-28T10:28:27.651Z,12.43
2022-11-28T10:30:35.022Z,12.44
2022-11-28T10:32:43.401Z,12.43
2022-11-28T10:34:52.626Z,12.43
2022-11-28T10:37:01.839Z,12.42
2022-11-28T10:39:12.285Z,12.40
2022-11-28T10:41:21.644Z,12.41
2022-11-28T10:43:33.616Z,12.44
2022-11-28T10:45:49.451Z,12.45
2022-11-28T10:48:37.184Z,12.47
2022-11-28T10:50:34.970Z,12.50
2022-11-28T10:52:45.893Z,12.51
2022-11-28T10:55:05.836Z,12.53
2022-11-28T10:57:16.484Z,12.56
2022-11-28T10:59:27.693Z,12.58
2022-11-28T11:01:34.225Z,12.57
2022-11-28T11:03:40.979Z,12.59
2022-11-28T11:05:46.572Z,12.60
2022-11-28T11:07:52.387Z,12.61
2022-11-28T11:09:55.434Z,12.61
2022-11-28T11:12:01.334Z,12.62
2022-11-28T11:14:05.839Z,12.64
2022-11-28T11:16:12.154Z,12.63
2022-11-28T11:18:25.723Z,12.63
2022-11-28T11:20:36.952Z,12.64
2022-11-28T11:22:39.854Z,12.65
2022-11-28T11:24:42.558Z,12.65
2022-11-28T11:26:48.077Z,12.65
2022-11-28T11:28:52.390Z,12.61
2022-11-28T11:31:01.171Z,12.63
2022-11-28T11:33:08.074Z,12.62
2022-11-28T11:35:18.814Z,12.64
2022-11-28T11:37:33.667Z,12.62
2022-11-28T11:39:49.420Z,12.64
2022-11-28T11:42:10.344Z,12.66
2022-11-28T11:44:34.830Z,12.63
2022-11-28T11:46:51.961Z,12.66
2022-11-28T11:48:54.943Z,12.66
2022-11-28T11:50:57.739Z,12.66
2022-11-28T11:53:07.761Z,12.68
2022-11-28T11:55:16.106Z,12.72
2022-11-28T11:57:32.451Z,12.74
2022-11-28T11:59:48.250Z,12.75
2022-11-28T12:01:56.590Z,12.74
2022-11-28T12:04:13.299Z,12.77
2022-11-28T12:06:29.790Z,12.79
2022-11-28T12:08:36.370Z,12.80
2022-11-28T12:10:46.504Z,12.76
2022-11-28T12:12:49.289Z,12.78
2022-11-28T12:14:52.746Z,12.79
2022-11-28T12:17:32.692Z,12.78
2022-11-28T12:19:47.177Z,12.82
2022-11-28T12:22:03.923Z,12.85
2022-11-28T12:24:13.258Z,12.87
2022-11-28T12:26:24.241Z,12.89
2022-11-28T12:28:41.753Z,12.90
2022-11-28T12:30:57.488Z,12.89
2022-11-28T12:33:11.790Z,12.90
2022-11-28T12:35:28.623Z,12.90
2022-11-28T12:38:09.688Z,12.91
2022-11-28T12:40:17.679Z,12.92
2022-11-28T12:42:46.734Z,12.92
2022-11-28T12:45:00.568Z,12.93
2022-11-28T12:47:14.655Z,12.93
2022-11-28T12:49:20.825Z,12.94
2022-11-28T12:51:37.339Z,12.95
2022-11-28T12:53:56.786Z,12.96
2022-11-28T12:56:08.659Z,12.96
2022-11-28T12:58:21.029Z,12.95
2022-11-28T13:00:26.647Z,12.96
2022-11-28T13:02:40.085Z,12.95
2022-11-28T13:05:04.536Z,12.96
2022-11-28T13:07:14.156Z,12.96
2022-11-28T13:09:31.591Z,12.98
2022-11-28T13:11:52.795Z,12.99
2022-11-28T13:14:04.536Z,12.97
2022-11-28T13:16:19.774Z,12.99
2022-11-28T13:18:41.639Z,12.99
2022-11-28T13:20:48.125Z,12.99
2022-11-28T13:23:08.927Z,12.99
2022-11-28T13:25:23.814Z,13.00
2022-11-28T13:27:36.359Z,12.99
2022-11-28T13:29:45.352Z,12.98
2022-11-28T13:31:53.446Z,12.96
2022-11-28T13:33:58.244Z,12.98
2022-11-28T13:36:02.902Z,12.99
2022-11-28T13:40:46.858Z,13.00
2022-11-28T13:43:06.740Z,13.00
2022-11-28T13:45:26.693Z,12.96
2022-11-28T13:47:36.730Z,12.97
2022-11-28T13:49:39.645Z,12.97
2022-11-28T13:51:42.263Z,12.96
2022-11-28T13:53:46.188Z,12.97
2022-11-28T13:55:51.198Z,12.96
2022-11-28T13:57:57.040Z,12.97
2022-11-28T14:00:23.644Z,12.98
2022-11-28T14:02:36.331Z,12.98
2022-11-28T14:04:45.338Z,12.96
2022-11-28T14:06:52.265Z,12.96
2022-11-28T14:09:05.740Z,12.97
2022-11-28T14:11:39.948Z,12.98
2022-11-28T14:13:58.327Z,12.98
2022-11-28T14:16:15.506Z,12.99
2022-11-28T14:18:56.951Z,12.99
2022-11-28T14:21:01.831Z,13.01
2022-11-28T14:23:21.018Z,13.03
2022-11-28T14:25:27.909Z,13.02
2022-11-28T14:27:34.229Z,13.01
2022-11-28T14:29:42.830Z,13.02
2022-11-28T14:32:06.964Z,13.02
2022-11-28T14:34:38.429Z,13.02
2022-11-28T14:36:44.581Z,13.03
2022-11-28T14:38:48.560Z,13.02
2022-11-28T14:41:02.944Z,12.99
2022-11-28T14:43:28.165Z,13.01
2022-11-28T14:45:44.512Z,13.02
2022-11-28T14:48:17.512Z,13.03
2022-11-28T14:50:56.190Z,13.04
2022-11-28T14:53:39.258Z,13.02
2022-11-28T14:55:42.119Z,13.01
2022-11-28T14:57:56.025Z,13.00
2022-11-28T15:00:04.111Z,13.00
2022-11-28T15:02:34.488Z,13.00
2022-11-28T15:04:55.005Z,12.99
2022-11-28T15:07:01.557Z,13.00
2022-11-28T15:09:08.427Z,13.00
2022-11-28T15:11:22.262Z,13.00
2022-11-28T15:13:51.686Z,12.97
2022-11-28T15:15:54.978Z,12.98
2022-11-28T15:18:01.946Z,12.96
2022-11-28T15:20:10.154Z,12.95
2022-11-28T15:22:31.819Z,12.93
2022-11-28T15:24:36.564Z,12.94
2022-11-28T15:26:39.426Z,12.93
2022-11-28T15:28:43.497Z,12.92
2022-11-28T15:30:47.679Z,12.90
2022-11-28T15:32:50.984Z,12.90
2022-11-28T15:34:59.503Z,12.90
2022-11-28T15:37:05.458Z,12.91
2022-11-28T15:39:29.395Z,12.89
2022-11-28T15:41:32.473Z,12.88
2022-11-28T15:43:38.856Z,12.85
2022-11-28T15:45:42.727Z,12.82
2022-11-28T15:47:46.693Z,12.80
2022-11-28T15:50:01.935Z,12.76
2022-11-28T15:52:06.296Z,12.73
2022-11-28T15:54:31.763Z,12.73
2022-11-28T15:56:34.769Z,12.72
2022-11-28T15:58:37.849Z,12.70
2022-11-28T16:00:45.019Z,12.69
2022-11-28T16:02:48.199Z,12.68
2022-11-28T16:05:05.345Z,12.66
2022-11-28T16:07:12.002Z,12.66
2022-11-28T16:09:26.902Z,12.64
2022-11-28T16:11:31.626Z,12.62
2022-11-28T16:13:34.876Z,12.63
2022-11-28T16:15:38.844Z,12.63
2022-11-28T16:17:42.879Z,12.63
2022-11-28T16:19:46.575Z,12.60
2022-11-28T16:21:56.078Z,12.58
2022-11-28T16:24:00.653Z,12.59
2022-11-28T16:26:05.397Z,12.59
2022-11-28T16:28:30.639Z,12.60
2022-11-28T16:30:37.390Z,12.61
2022-11-28T16:32:41.666Z,12.63
2022-11-28T16:34:46.967Z,12.62
2022-11-28T16:36:52.088Z,12.62
2022-11-28T16:39:05.674Z,12.61
2022-11-28T16:41:16.178Z,12.62
2022-11-28T16:43:25.705Z,12.61
2022-11-28T16:45:31.659Z,12.61
2022-11-28T16:47:36.420Z,12.66
2022-11-28T16:49:43.457Z,12.66
2022-11-28T16:51:46.340Z,12.64
2022-11-28T16:53:52.274Z,12.65
2022-11-28T16:55:55.152Z,12.63
2022-11-28T16:58:03.670Z,12.60
2022-11-28T17:00:09.486Z,12.60
2022-11-28T17:02:17.744Z,12.58
2022-11-28T17:04:22.352Z,12.57
2022-11-28T17:06:29.825Z,12.59
2022-11-28T17:08:32.569Z,12.59
2022-11-28T17:10:36.713Z,12.58
2022-11-28T17:12:39.731Z,12.55
2022-11-28T17:14:44.055Z,12.56
2022-11-28T17:16:47.030Z,12.54
2022-11-28T17:18:50.360Z,12.54
2022-11-28T17:20:53.022Z,12.54
2022-11-28T17:22:56.355Z,12.52
2022-11-28T17:25:02.194Z,12.50
2022-11-28T17:27:08.085Z,12.52
2022-11-28T17:29:12.752Z,12.53
2022-11-28T17:31:15.594Z,12.53
2022-11-28T17:33:18.332Z,12.52
2022-11-28T17:35:24.758Z,12.53
2022-11-28T17:37:27.375Z,12.57
2022-11-28T17:39:30.122Z,12.56
2022-11-28T17:41:33.037Z,12.57
2022-11-28T17:43:39.168Z,12.55
2022-11-28T17:45:42.113Z,12.55
2022-11-28T17:47:44.817Z,12.55
2022-11-28T17:49:47.804Z,12.58
2022-11-28T17:51:51.491Z,12.59
2022-11-28T17:53:54.225Z,12.58
2022-11-28T17:55:59.000Z,12.58
2022-11-28T17:58:01.951Z,12.56
2022-11-28T18:00:08.560Z,12.53
2022-11-28T18:02:11.816Z,12.55
2022-11-28T18:04:15.162Z,12.54
2022-11-28T18:06:18.867Z,12.53
2022-11-28T18:08:22.598Z,12.53
2022-11-28T18:10:25.341Z,12.52
2022-11-28T18:12:27.996Z,12.52
2022-11-28T18:14:35.218Z,12.53
2022-11-28T18:16:43.784Z,12.52
2022-11-28T18:18:47.070Z,12.52
2022-11-28T18:20:49.846Z,12.53
2022-11-28T18:22:52.519Z,12.54
2022-11-28T18:24:55.189Z,12.57
2022-11-28T18:26:58.405Z,12.56
2022-11-28T18:29:01.136Z,12.58
2022-11-28T18:31:10.632Z,12.56
2022-11-28T18:33:15.886Z,12.56
2022-11-28T18:35:19.617Z,12.57
2022-11-28T18:37:22.717Z,12.57
2022-11-28T18:39:25.568Z,12.58
2022-11-28T18:41:28.659Z,12.60
2022-11-28T18:43:31.344Z,12.61
2022-11-28T18:45:34.803Z,12.62
2022-11-28T18:47:37.483Z,12.60
2022-11-28T18:49:41.810Z,12.61
2022-11-28T18:51:44.966Z,12.62
2022-11-28T18:53:48.606Z,12.63
2022-11-28T18:56:00.839Z,12.60
2022-11-28T18:58:03.628Z,12.60
2022-11-28T19:00:07.788Z,12.61
2022-11-28T19:02:13.050Z,12.61
2022-11-28T19:04:16.698Z,12.60
2022-11-28T19:06:21.825Z,12.59
2022-11-28T19:08:24.628Z,12.59
2022-11-28T19:10:27.315Z,12.60
2022-11-28T19:12:30.332Z,12.60
2022-11-28T19:14:34.170Z,12.61
2022-11-28T19:16:38.517Z,12.60
2022-11-28T19:18:42.254Z,12.61
2022-11-28T19:20:44.978Z,12.62
2022-11-28T19:22:49.146Z,12.61
2022-11-28T19:24:51.875Z,12.60
2022-11-28T19:26:54.535Z,12.61
2022-11-28T19:28:57.715Z,12.59
2022-11-28T19:31:06.186Z,12.59
2022-11-28T19:33:08.911Z,12.59
2022-11-28T19:35:11.637Z,12.58
2022-11-28T19:37:15.831Z,12.57
2022-11-28T19:39:22.415Z,12.56
2022-11-28T19:41:25.062Z,12.56
2022-11-28T19:43:27.941Z,12.57
2022-11-28T19:45:30.776Z,12.56
2022-11-28T19:47:33.491Z,12.56
2022-11-28T19:49:36.288Z,12.55
2022-11-28T19:51:38.953Z,12.54
2022-11-28T19:53:43.464Z,12.53
2022-11-28T19:55:49.290Z,12.51
2022-11-28T19:57:52.034Z,12.50
2022-11-28T19:59:54.641Z,12.50
2022-11-28T20:01:57.375Z,12.50
2022-11-28T20:04:00.411Z,12.49
2022-11-28T20:06:03.184Z,12.48
2022-11-28T20:08:06.945Z,12.47
2022-11-28T20:10:10.382Z,12.45
2022-11-28T20:12:14.422Z,12.45
2022-11-28T20:14:19.311Z,12.44
2022-11-28T20:16:22.007Z,12.44
2022-11-28T20:18:24.741Z,12.45
2022-11-28T20:20:27.469Z,12.45
2022-11-28T20:22:30.726Z,12.45
2022-11-28T20:24:33.406Z,12.44
2022-11-28T20:26:38.459Z,12.43
2022-11-28T20:28:43.509Z,12.42
2022-11-28T20:30:48.579Z,12.42
2022-11-28T20:32:51.182Z,12.41
2022-11-28T20:34:54.034Z,12.42
2022-11-28T20:36:59.343Z,12.42
2022-11-28T20:39:02.311Z,12.41
2022-11-28T20:41:07.373Z,12.41
2022-11-28T20:43:10.198Z,12.43
2022-11-28T20:45:14.266Z,12.41
2022-11-28T20:47:16.945Z,12.40
2022-11-28T20:49:20.149Z,12.38
2022-11-28T20:51:25.774Z,12.40
2022-11-28T20:53:28.793Z,12.39
2022-11-28T20:55:31.665Z,12.42
2022-11-28T20:57:34.527Z,12.40
2022-11-28T20:59:37.192Z,12.39
2022-11-28T21:01:41.633Z,12.41
2022-11-28T21:03:44.814Z,12.40
2022-11-28T21:05:47.438Z,12.39
2022-11-28T21:07:50.269Z,12.38
2022-11-28T21:09:54.310Z,12.37
2022-11-28T21:11:58.895Z,12.36
2022-11-28T21:14:02.810Z,12.34
2022-11-28T21:16:07.223Z,12.36
2022-11-28T21:18:11.653Z,12.37
2022-11-28T21:20:14.810Z,12.37
2022-11-28T21:22:17.506Z,12.37
2022-11-28T21:24:20.409Z,12.36
2022-11-28T21:26:29.976Z,12.35
2022-11-28T21:28:33.625Z,12.35
2022-11-28T21:30:41.114Z,12.35
2022-11-28T21:32:44.516Z,12.35
2022-11-28T21:34:48.608Z,12.35
2022-11-28T21:36:51.708Z,12.34
2022-11-28T21:38:56.391Z,12.32
2022-11-28T21:40:59.804Z,12.31
2022-11-28T21:43:02.948Z,12.31
2022-11-28T21:45:06.702Z,12.31
2022-11-28T21:47:09.408Z,12.31
2022-11-28T21:49:13.316Z,12.29
2022-11-28T21:51:19.096Z,12.26
2022-11-28T21:53:21.710Z,12.28
2022-11-28T21:55:24.317Z,12.28
2022-11-28T21:57:26.999Z,12.27
2022-11-28T21:59:29.736Z,12.28
2022-11-28T22:01:32.448Z,12.27
2022-11-28T22:03:37.297Z,12.27
2022-11-28T22:05:40.198Z,12.27
2022-11-28T22:07:44.270Z,12.27
2022-11-28T22:09:48.610Z,12.25
2022-11-28T22:11:51.264Z,12.24
2022-11-28T22:13:54.099Z,12.23
2022-11-28T22:15:57.586Z,12.21
2022-11-28T22:18:00.351Z,12.22
2022-11-28T22:20:03.911Z,12.22
2022-11-28T22:22:06.836Z,12.18
2022-11-28T22:24:11.074Z,12.20
2022-11-28T22:26:14.366Z,12.17
2022-11-28T22:28:17.326Z,12.16
2022-11-28T22:30:20.314Z,12.16
